sensor_id;sensor_type;location;lat;lon;timestamp;pressure;altitude;pressure_sealevel;temperature;humidity
61109;BME280;46995;55.740;37.402;2022-10-31T00:01:40;97848.13;;;0.43;68.92
61109;BME280;46995;55.740;37.402;2022-10-31T00:04:05;97852.44;;;0.55;69.33
61109;BME280;46995;55.740;37.402;2022-10-31T00:06:32;97831.91;;;0.52;68.56
61109;BME280;46995;55.740;37.402;2022-10-31T00:09:00;97825.66;;;0.55;69.10
61109;BME280;46995;55.740;37.402;2022-10-31T00:11:27;97819.63;;;0.54;68.45
61109;BME280;46995;55.740;37.402;2022-10-31T00:13:53;97838.09;;;0.62;68.05
61109;BME280;46995;55.740;37.402;2022-10-31T00:16:22;97814.88;;;0.48;67.83
61109;BME280;46995;55.740;37.402;2022-10-31T00:18:49;97814.44;;;0.54;68.01
61109;BME280;46995;55.740;37.402;2022-10-31T00:21:15;97824.31;;;0.73;69.24
61109;BME280;46995;55.740;37.402;2022-10-31T00:23:41;97805.69;;;0.55;68.42
61109;BME280;46995;55.740;37.402;2022-10-31T00:26:06;97795.38;;;0.42;68.03
61109;BME280;46995;55.740;37.402;2022-10-31T00:28:32;97816.78;;;0.46;68.00
61109;BME280;46995;55.740;37.402;2022-10-31T00:30:59;97811.53;;;0.35;68.57
61109;BME280;46995;55.740;37.402;2022-10-31T00:33:26;97810.47;;;0.37;69.30
61109;BME280;46995;55.740;37.402;2022-10-31T00:35:51;97821.72;;;0.49;69.08
61109;BME280;46995;55.740;37.402;2022-10-31T00:38:18;97820.69;;;0.52;68.33
61109;BME280;46995;55.740;37.402;2022-10-31T00:40:44;97810.91;;;0.55;68.52
61109;BME280;46995;55.740;37.402;2022-10-31T00:43:10;97813.59;;;0.54;67.96
61109;BME280;46995;55.740;37.402;2022-10-31T00:45:35;97798.69;;;0.45;67.88
61109;BME280;46995;55.740;37.402;2022-10-31T00:48:01;97791.13;;;0.41;67.87
61109;BME280;46995;55.740;37.402;2022-10-31T00:50:28;97800.13;;;0.49;68.59
61109;BME280;46995;55.740;37.402;2022-10-31T00:52:55;97803.78;;;0.46;67.89
61109;BME280;46995;55.740;37.402;2022-10-31T00:55:20;97791.94;;;0.42;68.21
61109;BME280;46995;55.740;37.402;2022-10-31T00:57:47;97794.09;;;0.48;68.20
61109;BME280;46995;55.740;37.402;2022-10-31T01:00:14;97804.44;;;0.61;67.80
61109;BME280;46995;55.740;37.402;2022-10-31T01:02:40;97801.72;;;0.62;67.29
61109;BME280;46995;55.740;37.402;2022-10-31T01:05:07;97802.06;;;0.69;67.05
61109;BME280;46995;55.740;37.402;2022-10-31T01:07:36;97799.63;;;0.67;68.03
61109;BME280;46995;55.740;37.402;2022-10-31T01:10:02;97804.56;;;0.70;67.71
61109;BME280;46995;55.740;37.402;2022-10-31T01:12:28;97803.28;;;0.76;67.15
61109;BME280;46995;55.740;37.402;2022-10-31T01:14:56;97785.78;;;0.67;67.27
61109;BME280;46995;55.740;37.402;2022-10-31T01:17:21;97790.25;;;0.65;67.64
61109;BME280;46995;55.740;37.402;2022-10-31T01:19:47;97785.41;;;0.60;67.46
61109;BME280;46995;55.740;37.402;2022-10-31T01:22:13;97784.59;;;0.60;67.56
61109;BME280;46995;55.740;37.402;2022-10-31T01:24:38;97782.56;;;0.63;67.71
61109;BME280;46995;55.740;37.402;2022-10-31T01:27:04;97796.31;;;0.76;67.78
61109;BME280;46995;55.740;37.402;2022-10-31T01:29:33;97796.09;;;0.79;67.48
61109;BME280;46995;55.740;37.402;2022-10-31T01:31:58;97811.34;;;0.84;67.91
61109;BME280;46995;55.740;37.402;2022-10-31T01:34:24;97796.78;;;0.70;68.44
61109;BME280;46995;55.740;37.402;2022-10-31T01:36:50;97790.38;;;0.63;68.51
61109;BME280;46995;55.740;37.402;2022-10-31T01:39:17;97788.69;;;0.51;70.18
61109;BME280;46995;55.740;37.402;2022-10-31T01:41:50;97814.56;;;0.64;70.96
61109;BME280;46995;55.740;37.402;2022-10-31T01:49:15;97793.81;;;0.16;74.34
61109;BME280;46995;55.740;37.402;2022-10-31T01:51:47;97819.47;;;0.21;74.22
61109;BME280;46995;55.740;37.402;2022-10-31T01:54:18;97816.19;;;0.06;76.57
61109;BME280;46995;55.740;37.402;2022-10-31T01:56:52;97818.84;;;-0.07;77.19
61109;BME280;46995;55.740;37.402;2022-10-31T01:59:21;97802.69;;;-0.23;79.38
61109;BME280;46995;55.740;37.402;2022-10-31T02:01:51;97808.09;;;-0.26;78.88
61109;BME280;46995;55.740;37.402;2022-10-31T02:04:18;97830.50;;;-0.25;80.68
61109;BME280;46995;55.740;37.402;2022-10-31T02:06:51;97822.63;;;-0.36;82.81
61109;BME280;46995;55.740;37.402;2022-10-31T02:09:19;97812.06;;;-0.46;83.43
61109;BME280;46995;55.740;37.402;2022-10-31T02:11:51;97828.03;;;-0.39;83.74
61109;BME280;46995;55.740;37.402;2022-10-31T02:14:18;97826.09;;;-0.48;85.32
61109;BME280;46995;55.740;37.402;2022-10-31T02:16:45;97821.22;;;-0.53;85.11
61109;BME280;46995;55.740;37.402;2022-10-31T02:19:15;97809.19;;;-0.66;85.96
61109;BME280;46995;55.740;37.402;2022-10-31T02:21:54;97837.56;;;-0.52;86.03
61109;BME280;46995;55.740;37.402;2022-10-31T02:24:46;97805.25;;;-0.72;86.81
61109;BME280;46995;55.740;37.402;2022-10-31T02:27:36;97815.63;;;-0.59;88.31
61109;BME280;46995;55.740;37.402;2022-10-31T02:30:22;97833.44;;;-0.55;87.89
61109;BME280;46995;55.740;37.402;2022-10-31T02:33:01;97829.28;;;-0.57;88.61
61109;BME280;46995;55.740;37.402;2022-10-31T02:35:58;97801.31;;;-0.77;88.26
61109;BME280;46995;55.740;37.402;2022-10-31T02:39:17;97828.16;;;-0.53;88.66
61109;BME280;46995;55.740;37.402;2022-10-31T02:41:58;97794.06;;;-0.72;88.43
61109;BME280;46995;55.740;37.402;2022-10-31T02:48:30;97787.22;;;-0.86;88.27
61109;BME280;46995;55.740;37.402;2022-10-31T02:51:05;97765.47;;;-1.09;88.19
61109;BME280;46995;55.740;37.402;2022-10-31T02:53:36;97774.25;;;-0.99;88.43
61109;BME280;46995;55.740;37.402;2022-10-31T02:56:14;97819.56;;;-0.66;89.44
61109;BME280;46995;55.740;37.402;2022-10-31T02:59:01;97806.81;;;-0.69;88.73
61109;BME280;46995;55.740;37.402;2022-10-31T03:25:56;97826.81;;;-0.71;88.40
61109;BME280;46995;55.740;37.402;2022-10-31T03:30:02;97853.66;;;-0.72;88.92
61109;BME280;46995;55.740;37.402;2022-10-31T03:33:52;97801.53;;;-1.06;89.51
61109;BME280;46995;55.740;37.402;2022-10-31T03:36:50;97847.13;;;-0.65;89.70
61109;BME280;46995;55.740;37.402;2022-10-31T03:39:41;97753.88;;;-1.16;89.63
61109;BME280;46995;55.740;37.402;2022-10-31T03:42:23;97738.53;;;-1.19;89.59
61109;BME280;46995;55.740;37.402;2022-10-31T03:45:06;97841.53;;;-0.59;89.54
61109;BME280;46995;55.740;37.402;2022-10-31T03:47:37;97808.16;;;-0.76;89.06
61109;BME280;46995;55.740;37.402;2022-10-31T03:50:08;97803.59;;;-0.86;89.13
61109;BME280;46995;55.740;37.402;2022-10-31T03:53:13;97840.63;;;-0.58;89.13
61109;BME280;46995;55.740;37.402;2022-10-31T03:55:50;97766.09;;;-1.05;89.56
61109;BME280;46995;55.740;37.402;2022-10-31T03:58:33;97798.44;;;-0.86;89.52
61109;BME280;46995;55.740;37.402;2022-10-31T04:01:09;97796.53;;;-0.83;89.14
61109;BME280;46995;55.740;37.402;2022-10-31T04:04:05;97775.41;;;-1.03;88.74
61109;BME280;46995;55.740;37.402;2022-10-31T04:07:00;97809.72;;;-0.74;88.91
61109;BME280;46995;55.740;37.402;2022-10-31T04:09:36;97794.16;;;-0.87;88.13
61109;BME280;46995;55.740;37.402;2022-10-31T04:12:08;97790.31;;;-0.94;88.34
61109;BME280;46995;55.740;37.402;2022-10-31T04:15:20;97765.69;;;-1.12;88.45
61109;BME280;46995;55.740;37.402;2022-10-31T04:17:58;97749.72;;;-1.18;88.19
61109;BME280;46995;55.740;37.402;2022-10-31T04:20:38;97813.97;;;-0.86;88.89
61109;BME280;46995;55.740;37.402;2022-10-31T04:27:30;97783.09;;;-1.01;89.30
61109;BME280;46995;55.740;37.402;2022-10-31T04:30:03;97855.44;;;-0.60;89.04
61109;BME280;46995;55.740;37.402;2022-10-31T04:32:31;97866.22;;;-0.54;89.32
61109;BME280;46995;55.740;37.402;2022-10-31T04:35:04;97840.91;;;-0.75;89.13
61109;BME280;46995;55.740;37.402;2022-10-31T04:37:31;97873.56;;;-0.60;88.68
61109;BME280;46995;55.740;37.402;2022-10-31T04:39:58;97880.44;;;-0.59;88.78
61109;BME280;46995;55.740;37.402;2022-10-31T04:42:42;97862.38;;;-0.73;89.18
61109;BME280;46995;55.740;37.402;2022-10-31T04:45:10;97878.53;;;-0.57;89.53
61109;BME280;46995;55.740;37.402;2022-10-31T04:47:36;97874.50;;;-0.61;89.84
61109;BME280;46995;55.740;37.402;2022-10-31T04:50:03;97883.53;;;-0.54;89.61
61109;BME280;46995;55.740;37.402;2022-10-31T04:52:29;97875.53;;;-0.51;89.22
61109;BME280;46995;55.740;37.402;2022-10-31T04:54:56;97890.16;;;-0.50;89.77
61109;BME280;46995;55.740;37.402;2022-10-31T04:57:43;97861.03;;;-0.66;89.38
61109;BME280;46995;55.740;37.402;2022-10-31T05:00:11;97879.19;;;-0.54;89.42
61109;BME280;46995;55.740;37.402;2022-10-31T05:02:53;97895.22;;;-0.36;89.07
61109;BME280;46995;55.740;37.402;2022-10-31T05:05:22;97907.28;;;-0.35;89.40
61109;BME280;46995;55.740;37.402;2022-10-31T05:07:49;97917.75;;;-0.36;88.98
61109;BME280;46995;55.740;37.402;2022-10-31T05:10:19;97917.88;;;-0.38;88.95
61109;BME280;46995;55.740;37.402;2022-10-31T05:12:51;97925.00;;;-0.42;88.82
61109;BME280;46995;55.740;37.402;2022-10-31T05:15:49;97893.78;;;-0.65;88.77
61109;BME280;46995;55.740;37.402;2022-10-31T05:18:33;97930.91;;;-0.52;88.98
61109;BME280;46995;55.740;37.402;2022-10-31T05:21:28;97912.47;;;-0.60;89.25
61109;BME280;46995;55.740;37.402;2022-10-31T05:23:59;97920.53;;;-0.52;89.19
61109;BME280;46995;55.740;37.402;2022-10-31T05:26:25;97936.00;;;-0.51;88.95
61109;BME280;46995;55.740;37.402;2022-10-31T05:28:53;97936.75;;;-0.49;89.17
61109;BME280;46995;55.740;37.402;2022-10-31T05:31:19;97928.97;;;-0.49;89.05
61109;BME280;46995;55.740;37.402;2022-10-31T05:33:45;97934.25;;;-0.50;89.20
61109;BME280;46995;55.740;37.402;2022-10-31T05:36:29;97963.50;;;-0.35;88.86
61109;BME280;46995;55.740;37.402;2022-10-31T05:38:59;97946.69;;;-0.43;89.22
61109;BME280;46995;55.740;37.402;2022-10-31T05:41:33;97960.69;;;-0.45;89.17
61109;BME280;46995;55.740;37.402;2022-10-31T05:44:06;97974.50;;;-0.32;89.47
61109;BME280;46995;55.740;37.402;2022-10-31T05:46:43;97962.88;;;-0.39;89.34
61109;BME280;46995;55.740;37.402;2022-10-31T05:49:08;97976.66;;;-0.26;89.54
61109;BME280;46995;55.740;37.402;2022-10-31T05:52:00;97979.69;;;-0.32;89.17
61109;BME280;46995;55.740;37.402;2022-10-31T05:54:35;97971.59;;;-0.40;89.49
61109;BME280;46995;55.740;37.402;2022-10-31T05:57:00;97987.66;;;-0.35;89.20
61109;BME280;46995;55.740;37.402;2022-10-31T05:59:26;97983.63;;;-0.39;88.82
61109;BME280;46995;55.740;37.402;2022-10-31T06:01:52;97994.63;;;-0.35;89.49
61109;BME280;46995;55.740;37.402;2022-10-31T06:04:38;98003.84;;;-0.31;89.13
61109;BME280;46995;55.740;37.402;2022-10-31T06:07:03;98012.44;;;-0.31;89.54
61109;BME280;46995;55.740;37.402;2022-10-31T06:09:29;98014.22;;;-0.31;90.07
61109;BME280;46995;55.740;37.402;2022-10-31T06:11:55;98028.53;;;-0.26;89.81
61109;BME280;46995;55.740;37.402;2022-10-31T06:14:23;98009.97;;;-0.32;89.66
61109;BME280;46995;55.740;37.402;2022-10-31T06:16:54;98040.91;;;-0.17;90.04
61109;BME280;46995;55.740;37.402;2022-10-31T06:19:39;98022.44;;;-0.25;89.67
61109;BME280;46995;55.740;37.402;2022-10-31T06:22:05;98040.19;;;-0.19;90.25
61109;BME280;46995;55.740;37.402;2022-10-31T06:24:32;98048.69;;;-0.17;89.93
61109;BME280;46995;55.740;37.402;2022-10-31T06:27:16;98047.03;;;-0.18;90.12
61109;BME280;46995;55.740;37.402;2022-10-31T06:29:42;98061.28;;;-0.11;90.66
61109;BME280;46995;55.740;37.402;2022-10-31T06:32:18;98051.28;;;-0.17;90.71
61109;BME280;46995;55.740;37.402;2022-10-31T06:34:44;98072.78;;;-0.02;90.02
61109;BME280;46995;55.740;37.402;2022-10-31T06:37:13;98081.09;;;0.03;90.47
61109;BME280;46995;55.740;37.402;2022-10-31T06:39:42;98091.91;;;0.10;90.43
61109;BME280;46995;55.740;37.402;2022-10-31T06:42:10;98084.97;;;0.10;90.28
61109;BME280;46995;55.740;37.402;2022-10-31T06:44:36;98097.22;;;0.21;89.91
61109;BME280;46995;55.740;37.402;2022-10-31T06:47:25;98114.34;;;0.36;89.21
61109;BME280;46995;55.740;37.402;2022-10-31T06:50:05;98109.69;;;0.41;89.72
61109;BME280;46995;55.740;37.402;2022-10-31T06:52:31;98117.75;;;0.49;89.18
61109;BME280;46995;55.740;37.402;2022-10-31T06:54:57;98126.50;;;0.48;89.19
61109;BME280;46995;55.740;37.402;2022-10-31T06:57:22;98119.44;;;0.50;89.35
61109;BME280;46995;55.740;37.402;2022-10-31T06:59:48;98127.34;;;0.61;88.71
61109;BME280;46995;55.740;37.402;2022-10-31T07:03:00;98141.03;;;0.63;88.56
61109;BME280;46995;55.740;37.402;2022-10-31T07:05:28;98153.72;;;0.55;89.41
61109;BME280;46995;55.740;37.402;2022-10-31T07:07:59;98163.88;;;0.58;90.15
61109;BME280;46995;55.740;37.402;2022-10-31T07:10:29;98174.91;;;0.74;89.99
61109;BME280;46995;55.740;37.402;2022-10-31T07:13:05;98175.94;;;0.84;89.45
61109;BME280;46995;55.740;37.402;2022-10-31T07:15:35;98172.63;;;0.82;90.12
61109;BME280;46995;55.740;37.402;2022-10-31T07:18:07;98188.19;;;1.08;89.23
61109;BME280;46995;55.740;37.402;2022-10-31T07:20:34;98174.16;;;0.98;88.51
61109;BME280;46995;55.740;37.402;2022-10-31T07:23:01;98207.41;;;1.18;88.93
61109;BME280;46995;55.740;37.402;2022-10-31T07:25:27;98188.94;;;0.84;87.92
61109;BME280;46995;55.740;37.402;2022-10-31T07:28:14;98210.88;;;0.80;89.79
61109;BME280;46995;55.740;37.402;2022-10-31T07:30:49;98217.63;;;0.83;89.94
61109;BME280;46995;55.740;37.402;2022-10-31T07:33:19;98204.41;;;0.86;90.25
61109;BME280;46995;55.740;37.402;2022-10-31T07:36:20;98215.25;;;0.93;90.10
61109;BME280;46995;55.740;37.402;2022-10-31T07:38:47;98202.13;;;0.81;89.95
61109;BME280;46995;55.740;37.402;2022-10-31T07:41:13;98249.53;;;1.10;90.51
61109;BME280;46995;55.740;37.402;2022-10-31T07:43:42;98263.88;;;1.16;90.67
61109;BME280;46995;55.740;37.402;2022-10-31T07:46:17;98243.09;;;1.03;89.29
61109;BME280;46995;55.740;37.402;2022-10-31T07:49:06;98259.53;;;1.04;89.55
61109;BME280;46995;55.740;37.402;2022-10-31T07:51:50;98254.94;;;0.95;89.24
61109;BME280;46995;55.740;37.402;2022-10-31T07:54:53;98283.44;;;1.21;89.43
61109;BME280;46995;55.740;37.402;2022-10-31T07:57:22;98228.75;;;0.85;88.79
61109;BME280;46995;55.740;37.402;2022-10-31T07:59:48;98279.28;;;1.19;88.65
61109;BME280;46995;55.740;37.402;2022-10-31T08:02:17;98293.00;;;1.34;88.90
61109;BME280;46995;55.740;37.402;2022-10-31T08:04:46;98298.63;;;1.40;88.82
61109;BME280;46995;55.740;37.402;2022-10-31T08:07:35;98310.88;;;1.38;88.29
61109;BME280;46995;55.740;37.402;2022-10-31T08:10:05;98310.06;;;1.38;88.80
61109;BME280;46995;55.740;37.402;2022-10-31T08:12:31;98295.50;;;1.35;88.17
61109;BME280;46995;55.740;37.402;2022-10-31T08:14:58;98282.50;;;1.35;87.82
61109;BME280;46995;55.740;37.402;2022-10-31T08:17:25;98317.31;;;1.58;87.18
61109;BME280;46995;55.740;37.402;2022-10-31T08:19:58;98321.59;;;1.59;87.51
61109;BME280;46995;55.740;37.402;2022-10-31T08:22:32;98320.94;;;1.68;87.29
61109;BME280;46995;55.740;37.402;2022-10-31T08:24:59;98327.72;;;1.70;86.61
61109;BME280;46995;55.740;37.402;2022-10-31T08:27:26;98321.44;;;1.73;86.10
61109;BME280;46995;55.740;37.402;2022-10-31T08:29:53;98318.34;;;1.81;85.81
61109;BME280;46995;55.740;37.402;2022-10-31T08:32:22;98333.94;;;1.81;84.92
61109;BME280;46995;55.740;37.402;2022-10-31T08:34:53;98350.34;;;1.94;84.99
61109;BME280;46995;55.740;37.402;2022-10-31T08:37:41;98358.25;;;2.05;84.73
61109;BME280;46995;55.740;37.402;2022-10-31T08:40:08;98366.78;;;2.20;83.98
61109;BME280;46995;55.740;37.402;2022-10-31T08:42:34;98360.41;;;2.24;83.28
61109;BME280;46995;55.740;37.402;2022-10-31T08:45:01;98366.22;;;2.27;82.49
61109;BME280;46995;55.740;37.402;2022-10-31T08:47:29;98381.69;;;2.41;81.60
61109;BME280;46995;55.740;37.402;2022-10-31T08:49:55;98378.38;;;2.39;81.07
61109;BME280;46995;55.740;37.402;2022-10-31T08:52:23;98372.09;;;2.42;80.28
61109;BME280;46995;55.740;37.402;2022-10-31T08:54:51;98391.56;;;2.49;79.66
61109;BME280;46995;55.740;37.402;2022-10-31T08:57:37;98388.53;;;2.55;79.29
61109;BME280;46995;55.740;37.402;2022-10-31T09:00:05;98386.03;;;2.53;79.31
61109;BME280;46995;55.740;37.402;2022-10-31T09:02:58;98406.16;;;2.75;77.91
61109;BME280;46995;55.740;37.402;2022-10-31T09:05:25;98390.13;;;2.69;79.28
61109;BME280;46995;55.740;37.402;2022-10-31T09:07:51;98396.75;;;2.85;79.26
61109;BME280;46995;55.740;37.402;2022-10-31T09:10:20;98411.09;;;2.91;78.09
61109;BME280;46995;55.740;37.402;2022-10-31T09:12:45;98399.78;;;2.79;78.28
61109;BME280;46995;55.740;37.402;2022-10-31T09:15:46;98390.38;;;2.66;76.08
61109;BME280;46995;55.740;37.402;2022-10-31T09:18:21;98401.16;;;2.72;75.09
61109;BME280;46995;55.740;37.402;2022-10-31T09:21:05;98441.09;;;2.73;75.31
61109;BME280;46995;55.740;37.402;2022-10-31T09:23:30;98420.22;;;2.62;75.22
61109;BME280;46995;55.740;37.402;2022-10-31T09:26:00;98434.13;;;2.73;75.65
61109;BME280;46995;55.740;37.402;2022-10-31T09:28:44;98434.28;;;2.83;74.94
61109;BME280;46995;55.740;37.402;2022-10-31T09:31:16;98439.28;;;2.86;73.83
61109;BME280;46995;55.740;37.402;2022-10-31T09:33:57;98429.72;;;2.74;73.58
61109;BME280;46995;55.740;37.402;2022-10-31T09:36:39;98444.28;;;2.89;73.20
61109;BME280;46995;55.740;37.402;2022-10-31T09:39:13;98440.28;;;2.96;72.63
61109;BME280;46995;55.740;37.402;2022-10-31T09:44:43;98447.72;;;3.13;73.54
61109;BME280;46995;55.740;37.402;2022-10-31T09:50:24;98464.56;;;3.20;73.57
61109;BME280;46995;55.740;37.402;2022-10-31T09:53:01;98486.91;;;3.24;73.74
61109;BME280;46995;55.740;37.402;2022-10-31T09:55:45;98498.38;;;3.22;74.36
61109;BME280;46995;55.740;37.402;2022-10-31T09:58:27;98494.25;;;3.30;73.97
61109;BME280;46995;55.740;37.402;2022-10-31T10:00:58;98478.06;;;3.38;74.38
61109;BME280;46995;55.740;37.402;2022-10-31T10:06:04;98472.03;;;3.49;72.36
61109;BME280;46995;55.740;37.402;2022-10-31T10:08:52;98510.41;;;3.35;73.33
61109;BME280;46995;55.740;37.402;2022-10-31T10:19:50;98546.28;;;2.84;78.94
61109;BME280;46995;55.740;37.402;2022-10-31T10:22:36;98545.50;;;2.59;79.70
61109;BME280;46995;55.740;37.402;2022-10-31T10:28:56;98559.88;;;2.64;79.30
61109;BME280;46995;55.740;37.402;2022-10-31T10:36:06;98565.34;;;2.97;77.77
61109;BME280;46995;55.740;37.402;2022-10-31T10:38:54;98552.50;;;2.94;77.63
61109;BME280;46995;55.740;37.402;2022-10-31T10:41:33;98534.75;;;2.99;76.86
61109;BME280;46995;55.740;37.402;2022-10-31T10:44:00;98557.72;;;3.07;76.06
61109;BME280;46995;55.740;37.402;2022-10-31T10:46:45;98557.72;;;3.07;76.23
61109;BME280;46995;55.740;37.402;2022-10-31T10:52:27;98574.75;;;3.48;74.59
61109;BME280;46995;55.740;37.402;2022-10-31T10:57:55;98573.88;;;3.36;74.42
61109;BME280;46995;55.740;37.402;2022-10-31T11:00:23;98569.47;;;3.36;73.29
61109;BME280;46995;55.740;37.402;2022-10-31T11:02:50;98559.22;;;3.22;73.64
61109;BME280;46995;55.740;37.402;2022-10-31T11:07:54;98538.69;;;3.18;72.08
61109;BME280;46995;55.740;37.402;2022-10-31T11:10:20;98556.16;;;3.28;72.34
61109;BME280;46995;55.740;37.402;2022-10-31T11:15:52;98576.38;;;3.37;72.14
61109;BME280;46995;55.740;37.402;2022-10-31T11:18:24;98565.16;;;3.24;71.47
61109;BME280;46995;55.740;37.402;2022-10-31T11:20:57;98565.59;;;3.18;71.73
61109;BME280;46995;55.740;37.402;2022-10-31T11:23:25;98572.53;;;3.07;72.42
61109;BME280;46995;55.740;37.402;2022-10-31T11:26:01;98582.69;;;3.22;72.69
61109;BME280;46995;55.740;37.402;2022-10-31T11:28:28;98590.19;;;3.27;71.54
61109;BME280;46995;55.740;37.402;2022-10-31T11:30:59;98580.69;;;3.26;71.36
61109;BME280;46995;55.740;37.402;2022-10-31T11:33:34;98575.03;;;3.08;71.44
61109;BME280;46995;55.740;37.402;2022-10-31T11:36:25;98608.19;;;3.06;71.63
61109;BME280;46995;55.740;37.402;2022-10-31T11:38:50;98608.94;;;2.95;72.35
61109;BME280;46995;55.740;37.402;2022-10-31T11:41:19;98594.06;;;2.85;72.64
61109;BME280;46995;55.740;37.402;2022-10-31T11:44:02;98600.28;;;2.95;72.37
61109;BME280;46995;55.740;37.402;2022-10-31T11:46:37;98596.84;;;2.94;73.16
61109;BME280;46995;55.740;37.402;2022-10-31T11:49:05;98608.22;;;2.93;73.05
61109;BME280;46995;55.740;37.402;2022-10-31T11:51:37;98602.38;;;2.90;72.71
61109;BME280;46995;55.740;37.402;2022-10-31T11:54:04;98606.75;;;2.89;73.46
61109;BME280;46995;55.740;37.402;2022-10-31T11:56:41;98596.16;;;2.80;73.73
61109;BME280;46995;55.740;37.402;2022-10-31T11:59:29;98601.34;;;2.92;73.40
61109;BME280;46995;55.740;37.402;2022-10-31T12:01:56;98616.16;;;2.92;73.83
61109;BME280;46995;55.740;37.402;2022-10-31T12:04:37;98616.03;;;2.93;73.78
61109;BME280;46995;55.740;37.402;2022-10-31T12:07:05;98594.88;;;2.85;73.70
61109;BME280;46995;55.740;37.402;2022-10-31T12:09:36;98592.78;;;2.78;73.77
61109;BME280;46995;55.740;37.402;2022-10-31T12:12:22;98600.72;;;2.89;73.50
61109;BME280;46995;55.740;37.402;2022-10-31T12:15:26;98593.88;;;2.75;74.86
61109;BME280;46995;55.740;37.402;2022-10-31T12:26:50;98627.44;;;2.80;74.32
61109;BME280;46995;55.740;37.402;2022-10-31T12:37:53;98629.28;;;2.78;74.92
61109;BME280;46995;55.740;37.402;2022-10-31T12:55:58;98642.34;;;2.78;75.71
61109;BME280;46995;55.740;37.402;2022-10-31T12:58:36;98642.34;;;2.78;75.59
61109;BME280;46995;55.740;37.402;2022-10-31T13:01:36;98649.75;;;2.84;75.18
61109;BME280;46995;55.740;37.402;2022-10-31T13:04:30;98655.19;;;2.81;75.28
61109;BME280;46995;55.740;37.402;2022-10-31T13:07:05;98639.94;;;2.75;76.00
61109;BME280;46995;55.740;37.402;2022-10-31T13:10:01;98646.19;;;2.85;75.06
61109;BME280;46995;55.740;37.402;2022-10-31T13:12:31;98666.63;;;2.91;74.89
61109;BME280;46995;55.740;37.402;2022-10-31T13:15:02;98677.91;;;2.91;74.86
61109;BME280;46995;55.740;37.402;2022-10-31T13:17:45;98683.31;;;2.88;75.21
61109;BME280;46995;55.740;37.402;2022-10-31T13:20:42;98683.31;;;2.88;74.78
61109;BME280;46995;55.740;37.402;2022-10-31T13:23:34;98690.28;;;2.88;74.43
61109;BME280;46995;55.740;37.402;2022-10-31T13:26:12;98696.47;;;2.87;74.29
61109;BME280;46995;55.740;37.402;2022-10-31T13:28:44;98690.44;;;2.86;74.55
61109;BME280;46995;55.740;37.402;2022-10-31T13:31:13;98694.19;;;2.82;74.53
61109;BME280;46995;55.740;37.402;2022-10-31T13:33:46;98700.94;;;2.85;74.99
61109;BME280;46995;55.740;37.402;2022-10-31T13:36:34;98695.22;;;2.92;74.98
61109;BME280;46995;55.740;37.402;2022-10-31T13:44:36;98710.22;;;2.89;74.24
61109;BME280;46995;55.740;37.402;2022-10-31T13:47:25;98711.06;;;2.89;74.49
61109;BME280;46995;55.740;37.402;2022-10-31T13:50:14;98717.53;;;2.84;75.00
61109;BME280;46995;55.740;37.402;2022-10-31T13:52:45;98702.50;;;2.75;74.82
61109;BME280;46995;55.740;37.402;2022-10-31T13:58:25;98741.31;;;2.92;74.98
61109;BME280;46995;55.740;37.402;2022-10-31T14:03:40;98755.28;;;2.91;74.46
61109;BME280;46995;55.740;37.402;2022-10-31T14:06:10;98745.50;;;2.82;75.23
61109;BME280;46995;55.740;37.402;2022-10-31T14:08:39;98746.94;;;2.86;75.07
61109;BME280;46995;55.740;37.402;2022-10-31T14:11:08;98752.34;;;2.83;75.32
61109;BME280;46995;55.740;37.402;2022-10-31T14:13:44;98751.22;;;2.74;75.89
61109;BME280;46995;55.740;37.402;2022-10-31T14:16:37;98715.75;;;2.59;75.77
61109;BME280;46995;55.740;37.402;2022-10-31T14:19:14;98758.19;;;2.74;76.29
61109;BME280;46995;55.740;37.402;2022-10-31T14:21:44;98738.16;;;2.62;76.46
61109;BME280;46995;55.740;37.402;2022-10-31T14:27:04;98753.50;;;2.79;76.37
61109;BME280;46995;55.740;37.402;2022-10-31T14:29:32;98747.75;;;2.74;75.61
61109;BME280;46995;55.740;37.402;2022-10-31T14:34:51;98745.69;;;2.66;76.17
61109;BME280;46995;55.740;37.402;2022-10-31T14:38:02;98771.56;;;2.82;76.21
61109;BME280;46995;55.740;37.402;2022-10-31T14:40:42;98748.38;;;2.65;76.03
61109;BME280;46995;55.740;37.402;2022-10-31T14:48:43;98733.53;;;2.52;75.64
61109;BME280;46995;55.740;37.402;2022-10-31T14:53:55;98790.66;;;2.95;75.33
61109;BME280;46995;55.740;37.402;2022-10-31T14:56:30;98799.28;;;2.83;75.67
61109;BME280;46995;55.740;37.402;2022-10-31T14:59:01;98809.00;;;2.81;75.74
61109;BME280;46995;55.740;37.402;2022-10-31T15:01:31;98754.69;;;2.48;74.92
61109;BME280;46995;55.740;37.402;2022-10-31T15:04:07;98763.97;;;2.52;75.88
61109;BME280;46995;55.740;37.402;2022-10-31T15:06:41;98790.22;;;2.76;75.09
61109;BME280;46995;55.740;37.402;2022-10-31T15:09:30;98794.38;;;2.78;75.44
61109;BME280;46995;55.740;37.402;2022-10-31T15:12:01;98810.38;;;2.86;75.41
61109;BME280;46995;55.740;37.402;2022-10-31T15:14:31;98807.63;;;2.88;74.53
61109;BME280;46995;55.740;37.402;2022-10-31T15:16:58;98789.47;;;2.74;74.03
61109;BME280;46995;55.740;37.402;2022-10-31T15:19:30;98800.66;;;2.76;74.39
61109;BME280;46995;55.740;37.402;2022-10-31T15:21:57;98821.81;;;2.84;74.03
61109;BME280;46995;55.740;37.402;2022-10-31T15:24:29;98799.59;;;2.66;74.45
61109;BME280;46995;55.740;37.402;2022-10-31T15:26:57;98806.56;;;2.65;74.68
61109;BME280;46995;55.740;37.402;2022-10-31T15:29:25;98835.78;;;2.83;74.68
61109;BME280;46995;55.740;37.402;2022-10-31T15:32:00;98827.66;;;2.75;74.43
61109;BME280;46995;55.740;37.402;2022-10-31T15:36:55;98849.03;;;2.80;74.48
61109;BME280;46995;55.740;37.402;2022-10-31T15:39:21;98796.31;;;2.49;73.96
61109;BME280;46995;55.740;37.402;2022-10-31T15:41:56;98860.84;;;2.85;74.10
61109;BME280;46995;55.740;37.402;2022-10-31T15:44:31;98855.63;;;2.85;73.88
61109;BME280;46995;55.740;37.402;2022-10-31T15:47:06;98831.78;;;2.65;74.50
61109;BME280;46995;55.740;37.402;2022-10-31T15:49:41;98861.22;;;2.79;73.92
61109;BME280;46995;55.740;37.402;2022-10-31T15:55:22;98855.38;;;2.76;74.30